sensor_id;sensor_type;location;lat;lon;timestamp;temperature;humidity
4757;DHT22;2392;52.578;13.426;2023-10-09T00:00:33;11.90;99.90
4757;DHT22;2392;52.578;13.426;2023-10-09T00:03:21;11.80;99.90
4757;DHT22;2392;52.578;13.426;2023-10-09T00:05:49;11.70;99.90
4757;DHT22;2392;52.578;13.426;2023-10-09T00:08:19;11.60;99.90
4757;DHT22;2392;52.578;13.426;2023-10-09T00:10:49;11.70;99.90
4757;DHT22;2392;52.578;13.426;2023-10-09T00:13:18;11.70;99.90
4757;DHT22;2392;52.578;13.426;2023-10-09T00:15:45;11.70;99.90
4757;DHT22;2392;52.578;13.426;2023-10-09T00:18:18;11.70;99.90
4757;DHT22;2392;52.578;13.426;2023-10-09T00:20:49;11.70;99.90
4757;DHT22;2392;52.578;13.426;2023-10-09T00:23:20;11.70;99.90
4757;DHT22;2392;52.578;13.426;2023-10-09T00:25:52;11.70;99.90
4757;DHT22;2392;52.578;13.426;2023-10-09T00:28:35;11.70;99.90
4757;DHT22;2392;52.578;13.426;2023-10-09T00:31:03;11.60;99.90
4757;DHT22;2392;52.578;13.426;2023-10-09T00:33:33;11.50;99.90
4757;DHT22;2392;52.578;13.426;2023-10-09T00:36:04;11.50;99.90
4757;DHT22;2392;52.578;13.426;2023-10-09T00:38:36;11.50;99.90
4757;DHT22;2392;52.578;13.426;2023-10-09T00:41:12;11.40;99.90
4757;DHT22;2392;52.578;13.426;2023-10-09T00:43:45;11.40;99.90
4757;DHT22;2392;52.578;13.426;2023-10-09T00:46:16;11.30;99.90
4757;DHT22;2392;52.578;13.426;2023-10-09T00:48:52;11.30;99.90
4757;DHT22;2392;52.578;13.426;2023-10-09T00:51:21;11.30;99.90
4757;DHT22;2392;52.578;13.426;2023-10-09T00:53:51;11.30;99.90
4757;DHT22;2392;52.578;13.426;2023-10-09T00:56:21;11.30;99.90
4757;DHT22;2392;52.578;13.426;2023-10-09T00:59:03;11.40;99.90
4757;DHT22;2392;52.578;13.426;2023-10-09T01:01:36;11.40;99.90
4757;DHT22;2392;52.578;13.426;2023-10-09T01:04:05;11.30;99.90
4757;DHT22;2392;52.578;13.426;2023-10-09T01:06:36;11.30;99.90
4757;DHT22;2392;52.578;13.426;2023-10-09T01:09:10;11.20;99.90
4757;DHT22;2392;52.578;13.426;2023-10-09T01:11:39;11.20;99.90
4757;DHT22;2392;52.578;13.426;2023-10-09T01:14:29;11.00;99.90
4757;DHT22;2392;52.578;13.426;2023-10-09T01:16:57;11.00;99.90
4757;DHT22;2392;52.578;13.426;2023-10-09T01:19:26;11.00;99.90
4757;DHT22;2392;52.578;13.426;2023-10-09T01:21:53;11.00;99.90
4757;DHT22;2392;52.578;13.426;2023-10-09T01:24:25;10.90;99.90
4757;DHT22;2392;52.578;13.426;2023-10-09T01:26:53;10.90;99.90
4757;DHT22;2392;52.578;13.426;2023-10-09T01:29:23;10.80;99.90
4757;DHT22;2392;52.578;13.426;2023-10-09T01:31:54;10.80;99.90
4757;DHT22;2392;52.578;13.426;2023-10-09T01:34:22;10.80;99.90
4757;DHT22;2392;52.578;13.426;2023-10-09T01:37:04;10.80;99.90
4757;DHT22;2392;52.578;13.426;2023-10-09T01:39:39;10.90;99.90
4757;DHT22;2392;52.578;13.426;2023-10-09T01:42:08;10.90;99.90
4757;DHT22;2392;52.578;13.426;2023-10-09T01:44:35;11.00;99.90
4757;DHT22;2392;52.578;13.426;2023-10-09T01:47:09;11.00;99.90
4757;DHT22;2392;52.578;13.426;2023-10-09T01:49:40;11.00;99.90
4757;DHT22;2392;52.578;13.426;2023-10-09T01:52:09;11.00;99.90
4757;DHT22;2392;52.578;13.426;2023-10-09T01:54:43;11.00;99.90
4757;DHT22;2392;52.578;13.426;2023-10-09T01:57:13;11.00;99.90
4757;DHT22;2392;52.578;13.426;2023-10-09T01:59:42;11.00;99.90
4757;DHT22;2392;52.578;13.426;2023-10-09T02:02:14;10.90;99.90
4757;DHT22;2392;52.578;13.426;2023-10-09T02:05:01;10.90;99.90
4757;DHT22;2392;52.578;13.426;2023-10-09T02:07:36;10.90;99.90
4757;DHT22;2392;52.578;13.426;2023-10-09T02:10:20;11.00;99.90
4757;DHT22;2392;52.578;13.426;2023-10-09T02:12:58;11.00;99.90
4757;DHT22;2392;52.578;13.426;2023-10-09T02:15:26;10.90;99.90
4757;DHT22;2392;52.578;13.426;2023-10-09T02:18:18;10.90;99.90
4757;DHT22;2392;52.578;13.426;2023-10-09T02:20:53;10.90;99.90
4757;DHT22;2392;52.578;13.426;2023-10-09T02:23:26;10.90;99.90
4757;DHT22;2392;52.578;13.426;2023-10-09T02:26:06;10.80;99.90
4757;DHT22;2392;52.578;13.426;2023-10-09T02:28:34;10.80;99.90
4757;DHT22;2392;52.578;13.426;2023-10-09T02:31:09;10.80;99.90
4757;DHT22;2392;52.578;13.426;2023-10-09T02:33:37;10.70;99.90
4757;DHT22;2392;52.578;13.426;2023-10-09T02:36:06;10.70;99.90
4757;DHT22;2392;52.578;13.426;2023-10-09T02:38:33;10.70;99.90
4757;DHT22;2392;52.578;13.426;2023-10-09T02:41:02;10.70;99.90
4757;DHT22;2392;52.578;13.426;2023-10-09T02:43:47;10.70;99.90
4757;DHT22;2392;52.578;13.426;2023-10-09T02:46:17;10.80;99.90
4757;DHT22;2392;52.578;13.426;2023-10-09T02:48:45;10.70;99.90
4757;DHT22;2392;52.578;13.426;2023-10-09T02:51:18;10.80;99.90
4757;DHT22;2392;52.578;13.426;2023-10-09T02:53:58;10.80;99.90
4757;DHT22;2392;52.578;13.426;2023-10-09T02:56:34;10.80;99.90
4757;DHT22;2392;52.578;13.426;2023-10-09T02:59:05;10.90;99.90
4757;DHT22;2392;52.578;13.426;2023-10-09T03:01:34;10.90;99.90
4757;DHT22;2392;52.578;13.426;2023-10-09T03:04:03;10.90;99.90
4757;DHT22;2392;52.578;13.426;2023-10-09T03:06:32;10.90;99.90
4757;DHT22;2392;52.578;13.426;2023-10-09T03:09:00;11.00;99.90
4757;DHT22;2392;52.578;13.426;2023-10-09T03:11:43;10.90;99.90
4757;DHT22;2392;52.578;13.426;2023-10-09T03:14:11;10.90;99.90
4757;DHT22;2392;52.578;13.426;2023-10-09T03:16:38;10.90;99.90
4757;DHT22;2392;52.578;13.426;2023-10-09T03:19:05;10.90;99.90
4757;DHT22;2392;52.578;13.426;2023-10-09T03:21:33;10.90;99.90
4757;DHT22;2392;52.578;13.426;2023-10-09T03:24:00;10.80;99.90
4757;DHT22;2392;52.578;13.426;2023-10-09T03:26:30;10.80;99.90
4757;DHT22;2392;52.578;13.426;2023-10-09T03:28:57;10.80;99.90
4757;DHT22;2392;52.578;13.426;2023-10-09T03:31:28;10.80;99.90
4757;DHT22;2392;52.578;13.426;2023-10-09T03:33:56;10.80;99.90
4757;DHT22;2392;52.578;13.426;2023-10-09T03:36:23;10.80;99.90
4757;DHT22;2392;52.578;13.426;2023-10-09T03:38:52;10.90;99.90
4757;DHT22;2392;52.578;13.426;2023-10-09T03:41:20;10.80;99.90
4757;DHT22;2392;52.578;13.426;2023-10-09T03:43:47;10.80;99.90
4757;DHT22;2392;52.578;13.426;2023-10-09T03:46:15;10.80;99.90
4757;DHT22;2392;52.578;13.426;2023-10-09T03:48:51;10.80;99.90
4757;DHT22;2392;52.578;13.426;2023-10-09T03:51:21;10.80;99.90
4757;DHT22;2392;52.578;13.426;2023-10-09T03:53:49;10.80;99.90
4757;DHT22;2392;52.578;13.426;2023-10-09T03:56:18;10.80;99.90
4757;DHT22;2392;52.578;13.426;2023-10-09T03:58:48;10.80;99.90
4757;DHT22;2392;52.578;13.426;2023-10-09T04:01:16;10.80;99.90
4757;DHT22;2392;52.578;13.426;2023-10-09T04:03:49;10.80;99.90
4757;DHT22;2392;52.578;13.426;2023-10-09T04:06:20;10.80;99.90
4757;DHT22;2392;52.578;13.426;2023-10-09T04:08:48;10.80;99.90
4757;DHT22;2392;52.578;13.426;2023-10-09T04:11:17;10.80;99.90
4757;DHT22;2392;52.578;13.426;2023-10-09T04:13:48;10.80;99.90
4757;DHT22;2392;52.578;13.426;2023-10-09T04:16:16;10.80;99.90
4757;DHT22;2392;52.578;13.426;2023-10-09T04:19:02;10.80;99.90
4757;DHT22;2392;52.578;13.426;2023-10-09T04:21:37;10.80;99.90
4757;DHT22;2392;52.578;13.426;2023-10-09T04:24:05;10.80;99.90
4757;DHT22;2392;52.578;13.426;2023-10-09T04:26:49;10.80;99.90
4757;DHT22;2392;52.578;13.426;2023-10-09T04:29:22;10.70;99.90
4757;DHT22;2392;52.578;13.426;2023-10-09T04:31:52;10.70;99.90
4757;DHT22;2392;52.578;13.426;2023-10-09T04:34:22;10.70;99.90
4757;DHT22;2392;52.578;13.426;2023-10-09T04:36:49;10.70;99.90
4757;DHT22;2392;52.578;13.426;2023-10-09T04:39:17;10.70;99.90
4757;DHT22;2392;52.578;13.426;2023-10-09T04:41:58;10.70;99.90
4757;DHT22;2392;52.578;13.426;2023-10-09T04:44:39;10.70;99.90
4757;DHT22;2392;52.578;13.426;2023-10-09T04:47:25;10.70;99.90
4757;DHT22;2392;52.578;13.426;2023-10-09T04:50:03;10.70;99.90
4757;DHT22;2392;52.578;13.426;2023-10-09T04:52:33;10.70;99.90
4757;DHT22;2392;52.578;13.426;2023-10-09T04:55:18;10.60;99.90
4757;DHT22;2392;52.578;13.426;2023-10-09T04:57:51;10.60;99.90
4757;DHT22;2392;52.578;13.426;2023-10-09T05:00:34;10.60;99.90
4757;DHT22;2392;52.578;13.426;2023-10-09T05:03:29;10.50;99.90
4757;DHT22;2392;52.578;13.426;2023-10-09T05:06:10;10.50;99.90
4757;DHT22;2392;52.578;13.426;2023-10-09T05:08:55;10.50;99.90
4757;DHT22;2392;52.578;13.426;2023-10-09T05:11:34;10.60;99.90
4757;DHT22;2392;52.578;13.426;2023-10-09T05:14:19;10.60;99.90
4757;DHT22;2392;52.578;13.426;2023-10-09T05:16:53;10.70;99.90
4757;DHT22;2392;52.578;13.426;2023-10-09T05:19:27;10.70;99.90
4757;DHT22;2392;52.578;13.426;2023-10-09T05:22:09;10.60;99.90
4757;DHT22;2392;52.578;13.426;2023-10-09T05:24:55;10.60;99.90
4757;DHT22;2392;52.578;13.426;2023-10-09T05:27:22;10.60;99.90
4757;DHT22;2392;52.578;13.426;2023-10-09T05:30:11;10.60;99.90
4757;DHT22;2392;52.578;13.426;2023-10-09T05:32:56;10.60;99.90
4757;DHT22;2392;52.578;13.426;2023-10-09T05:35:25;10.60;99.90
4757;DHT22;2392;52.578;13.426;2023-10-09T05:38:08;10.60;99.90
4757;DHT22;2392;52.578;13.426;2023-10-09T05:40:50;10.60;99.90
4757;DHT22;2392;52.578;13.426;2023-10-09T05:43:20;10.60;99.90
4757;DHT22;2392;52.578;13.426;2023-10-09T05:46:01;10.60;99.90
4757;DHT22;2392;52.578;13.426;2023-10-09T05:48:34;10.60;99.90
4757;DHT22;2392;52.578;13.426;2023-10-09T05:51:21;10.50;99.90
4757;DHT22;2392;52.578;13.426;2023-10-09T05:54:03;10.50;99.90
4757;DHT22;2392;52.578;13.426;2023-10-09T05:57:10;10.60;99.90
4757;DHT22;2392;52.578;13.426;2023-10-09T05:59:54;10.60;99.90
4757;DHT22;2392;52.578;13.426;2023-10-09T06:02:39;10.60;99.90
4757;DHT22;2392;52.578;13.426;2023-10-09T06:05:25;10.60;99.90
4757;DHT22;2392;52.578;13.426;2023-10-09T06:08:17;10.60;99.90
4757;DHT22;2392;52.578;13.426;2023-10-09T06:10:52;10.60;99.90
4757;DHT22;2392;52.578;13.426;2023-10-09T06:13:31;10.50;99.90
4757;DHT22;2392;52.578;13.426;2023-10-09T06:16:11;10.50;99.90
4757;DHT22;2392;52.578;13.426;2023-10-09T06:18:55;10.50;99.90
4757;DHT22;2392;52.578;13.426;2023-10-09T06:21:37;10.50;99.90
4757;DHT22;2392;52.578;13.426;2023-10-09T06:24:23;10.50;99.90
4757;DHT22;2392;52.578;13.426;2023-10-09T06:26:53;10.60;99.90
4757;DHT22;2392;52.578;13.426;2023-10-09T06:29:36;10.70;99.90
4757;DHT22;2392;52.578;13.426;2023-10-09T06:32:05;10.70;99.90
4757;DHT22;2392;52.578;13.426;2023-10-09T06:34:50;10.60;99.90
4757;DHT22;2392;52.578;13.426;2023-10-09T06:37:18;10.70;99.90
4757;DHT22;2392;52.578;13.426;2023-10-09T06:40:00;10.70;99.90
4757;DHT22;2392;52.578;13.426;2023-10-09T06:42:46;10.80;99.90
4757;DHT22;2392;52.578;13.426;2023-10-09T06:45:19;10.80;99.90
4757;DHT22;2392;52.578;13.426;2023-10-09T06:47:48;10.90;99.90
4757;DHT22;2392;52.578;13.426;2023-10-09T06:50:22;10.90;99.90
4757;DHT22;2392;52.578;13.426;2023-10-09T06:52:53;11.00;99.90
4757;DHT22;2392;52.578;13.426;2023-10-09T06:55:39;11.00;99.90
4757;DHT22;2392;52.578;13.426;2023-10-09T06:58:17;10.90;99.90
4757;DHT22;2392;52.578;13.426;2023-10-09T07:00:49;10.90;99.90
4757;DHT22;2392;52.578;13.426;2023-10-09T07:03:38;10.90;99.90
4757;DHT22;2392;52.578;13.426;2023-10-09T07:06:18;10.90;99.90
4757;DHT22;2392;52.578;13.426;2023-10-09T07:09:12;10.90;99.90
4757;DHT22;2392;52.578;13.426;2023-10-09T07:11:46;10.90;99.90
4757;DHT22;2392;52.578;13.426;2023-10-09T07:14:31;10.90;99.90
4757;DHT22;2392;52.578;13.426;2023-10-09T07:17:15;10.90;99.90
4757;DHT22;2392;52.578;13.426;2023-10-09T07:19:48;11.00;99.90
4757;DHT22;2392;52.578;13.426;2023-10-09T07:22:39;11.00;99.90
4757;DHT22;2392;52.578;13.426;2023-10-09T07:25:19;11.10;99.90
4757;DHT22;2392;52.578;13.426;2023-10-09T07:28:04;11.10;99.90
4757;DHT22;2392;52.578;13.426;2023-10-09T07:30:45;11.20;99.90
4757;DHT22;2392;52.578;13.426;2023-10-09T07:33:13;11.20;99.90
4757;DHT22;2392;52.578;13.426;2023-10-09T07:35:56;11.20;99.90
4757;DHT22;2392;52.578;13.426;2023-10-09T07:38:24;11.20;99.90
4757;DHT22;2392;52.578;13.426;2023-10-09T07:40:54;11.20;99.90
4757;DHT22;2392;52.578;13.426;2023-10-09T07:43:27;11.20;99.90
4757;DHT22;2392;52.578;13.426;2023-10-09T07:45:57;11.20;99.90
4757;DHT22;2392;52.578;13.426;2023-10-09T07:48:50;11.20;99.90
4757;DHT22;2392;52.578;13.426;2023-10-09T07:51:19;11.20;99.90
4757;DHT22;2392;52.578;13.426;2023-10-09T07:53:49;11.30;99.90
4757;DHT22;2392;52.578;13.426;2023-10-09T07:56:23;11.30;99.90
4757;DHT22;2392;52.578;13.426;2023-10-09T07:58:50;11.40;99.90
4757;DHT22;2392;52.578;13.426;2023-10-09T08:01:19;11.30;99.90
4757;DHT22;2392;52.578;13.426;2023-10-09T08:04:02;11.40;99.90
4757;DHT22;2392;52.578;13.426;2023-10-09T08:06:37;11.50;99.90
4757;DHT22;2392;52.578;13.426;2023-10-09T08:09:10;11.50;99.90
4757;DHT22;2392;52.578;13.426;2023-10-09T08:12:12;11.60;99.90
4757;DHT22;2392;52.578;13.426;2023-10-09T08:15:02;11.60;99.90
4757;DHT22;2392;52.578;13.426;2023-10-09T08:17:48;11.50;99.90
4757;DHT22;2392;52.578;13.426;2023-10-09T08:20:21;11.60;99.90
4757;DHT22;2392;52.578;13.426;2023-10-09T08:22:52;11.60;99.90
4757;DHT22;2392;52.578;13.426;2023-10-09T08:25:22;11.60;99.90
4757;DHT22;2392;52.578;13.426;2023-10-09T08:27:55;11.60;99.90
4757;DHT22;2392;52.578;13.426;2023-10-09T08:30:25;11.60;99.90
4757;DHT22;2392;52.578;13.426;2023-10-09T08:32:56;11.70;99.90
4757;DHT22;2392;52.578;13.426;2023-10-09T08:35:54;11.70;99.90
4757;DHT22;2392;52.578;13.426;2023-10-09T08:38:27;11.80;99.90
4757;DHT22;2392;52.578;13.426;2023-10-09T08:41:07;11.80;99.90
4757;DHT22;2392;52.578;13.426;2023-10-09T08:43:50;11.80;99.90
4757;DHT22;2392;52.578;13.426;2023-10-09T08:46:23;11.80;99.90
4757;DHT22;2392;52.578;13.426;2023-10-09T08:48:54;11.90;99.90
4757;DHT22;2392;52.578;13.426;2023-10-09T08:51:22;11.80;99.90
4757;DHT22;2392;52.578;13.426;2023-10-09T08:53:51;11.80;99.90
4757;DHT22;2392;52.578;13.426;2023-10-09T08:56:19;11.70;99.90
4757;DHT22;2392;52.578;13.426;2023-10-09T08:58:54;11.60;99.90
4757;DHT22;2392;52.578;13.426;2023-10-09T09:01:21;11.60;99.90
4757;DHT22;2392;52.578;13.426;2023-10-09T09:03:51;11.50;99.90
4757;DHT22;2392;52.578;13.426;2023-10-09T09:06:23;11.60;99.90
4757;DHT22;2392;52.578;13.426;2023-10-09T09:08:51;11.60;99.90
4757;DHT22;2392;52.578;13.426;2023-10-09T09:11:25;11.60;99.90
4757;DHT22;2392;52.578;13.426;2023-10-09T09:14:03;11.60;99.90
4757;DHT22;2392;52.578;13.426;2023-10-09T09:16:32;11.70;99.90
4757;DHT22;2392;52.578;13.426;2023-10-09T09:19:02;11.70;99.90
4757;DHT22;2392;52.578;13.426;2023-10-09T09:21:33;11.70;99.90
4757;DHT22;2392;52.578;13.426;2023-10-09T09:24:07;11.70;99.90
4757;DHT22;2392;52.578;13.426;2023-10-09T09:26:56;11.80;99.90
4757;DHT22;2392;52.578;13.426;2023-10-09T09:29:39;11.90;99.90
4757;DHT22;2392;52.578;13.426;2023-10-09T09:32:09;12.00;99.90
4757;DHT22;2392;52.578;13.426;2023-10-09T09:34:44;12.00;99.90
4757;DHT22;2392;52.578;13.426;2023-10-09T09:37:18;12.00;99.90
4757;DHT22;2392;52.578;13.426;2023-10-09T09:39:46;12.00;99.90
4757;DHT22;2392;52.578;13.426;2023-10-09T09:42:18;12.00;99.90
4757;DHT22;2392;52.578;13.426;2023-10-09T09:44:51;12.10;99.90
4757;DHT22;2392;52.578;13.426;2023-10-09T09:47:19;12.10;99.90
4757;DHT22;2392;52.578;13.426;2023-10-09T09:49:53;12.10;99.90
4757;DHT22;2392;52.578;13.426;2023-10-09T09:52:28;12.10;99.90
4757;DHT22;2392;52.578;13.426;2023-10-09T09:55:05;12.20;99.90
4757;DHT22;2392;52.578;13.426;2023-10-09T09:57:33;12.20;99.90
4757;DHT22;2392;52.578;13.426;2023-10-09T10:00:09;12.20;99.90
4757;DHT22;2392;52.578;13.426;2023-10-09T10:02:54;12.10;99.90
4757;DHT22;2392;52.578;13.426;2023-10-09T10:05:24;12.10;99.90
4757;DHT22;2392;52.578;13.426;2023-10-09T10:07:57;12.10;99.90
4757;DHT22;2392;52.578;13.426;2023-10-09T10:10:36;12.10;99.90
4757;DHT22;2392;52.578;13.426;2023-10-09T10:13:16;12.10;99.90
4757;DHT22;2392;52.578;13.426;2023-10-09T10:16:05;12.10;99.90
4757;DHT22;2392;52.578;13.426;2023-10-09T10:18:55;12.10;99.90
4757;DHT22;2392;52.578;13.426;2023-10-09T10:21:34;12.10;99.90
4757;DHT22;2392;52.578;13.426;2023-10-09T10:24:42;12.10;99.90
4757;DHT22;2392;52.578;13.426;2023-10-09T10:27:20;12.10;99.90
4757;DHT22;2392;52.578;13.426;2023-10-09T10:30:28;12.00;99.90
4757;DHT22;2392;52.578;13.426;2023-10-09T10:33:03;12.10;99.90
4757;DHT22;2392;52.578;13.426;2023-10-09T10:35:38;12.10;99.90
4757;DHT22;2392;52.578;13.426;2023-10-09T10:38:28;12.10;99.90
4757;DHT22;2392;52.578;13.426;2023-10-09T10:41:15;12.20;99.90
4757;DHT22;2392;52.578;13.426;2023-10-09T10:43:48;12.20;99.90
4757;DHT22;2392;52.578;13.426;2023-10-09T10:46:24;12.20;99.90
4757;DHT22;2392;52.578;13.426;2023-10-09T10:49:05;12.30;99.90
4757;DHT22;2392;52.578;13.426;2023-10-09T10:51:44;12.30;99.90
4757;DHT22;2392;52.578;13.426;2023-10-09T10:54:22;12.40;99.90
4757;DHT22;2392;52.578;13.426;2023-10-09T10:57:21;12.60;99.90
4757;DHT22;2392;52.578;13.426;2023-10-09T11:00:17;12.60;99.90
4757;DHT22;2392;52.578;13.426;2023-10-09T11:03:01;12.60;99.90
4757;DHT22;2392;52.578;13.426;2023-10-09T11:05:42;12.50;99.90
4757;DHT22;2392;52.578;13.426;2023-10-09T11:08:16;12.50;99.90
4757;DHT22;2392;52.578;13.426;2023-10-09T11:10:49;12.50;99.90
4757;DHT22;2392;52.578;13.426;2023-10-09T11:13:26;12.50;99.90
4757;DHT22;2392;52.578;13.426;2023-10-09T11:16:01;12.50;99.90
4757;DHT22;2392;52.578;13.426;2023-10-09T11:18:50;12.60;99.90
4757;DHT22;2392;52.578;13.426;2023-10-09T11:21:17;12.60;99.90
4757;DHT22;2392;52.578;13.426;2023-10-09T11:24:08;12.60;99.90
4757;DHT22;2392;52.578;13.426;2023-10-09T11:26:59;12.70;99.90
4757;DHT22;2392;52.578;13.426;2023-10-09T11:29:33;12.70;99.90
4757;DHT22;2392;52.578;13.426;2023-10-09T11:32:16;12.70;99.90
4757;DHT22;2392;52.578;13.426;2023-10-09T11:34:44;12.70;99.90
4757;DHT22;2392;52.578;13.426;2023-10-09T11:37:19;12.60;99.90
4757;DHT22;2392;52.578;13.426;2023-10-09T11:39:59;12.60;99.90
4757;DHT22;2392;52.578;13.426;2023-10-09T11:42:30;12.70;99.90
4757;DHT22;2392;52.578;13.426;2023-10-09T11:45:06;12.70;99.90
4757;DHT22;2392;52.578;13.426;2023-10-09T11:47:48;12.70;99.90
4757;DHT22;2392;52.578;13.426;2023-10-09T11:50:42;12.70;99.90
4757;DHT22;2392;52.578;13.426;2023-10-09T11:53:09;12.80;99.90
4757;DHT22;2392;52.578;13.426;2023-10-09T11:55:44;12.90;99.90
4757;DHT22;2392;52.578;13.426;2023-10-09T11:58:15;13.00;99.90
4757;DHT22;2392;52.578;13.426;2023-10-09T12:00:50;13.00;99.90
4757;DHT22;2392;52.578;13.426;2023-10-09T12:03:23;13.10;99.90
4757;DHT22;2392;52.578;13.426;2023-10-09T12:05:57;13.30;99.90
4757;DHT22;2392;52.578;13.426;2023-10-09T12:08:30;13.30;99.90
4757;DHT22;2392;52.578;13.426;2023-10-09T12:10:57;13.40;99.90
4757;DHT22;2392;52.578;13.426;2023-10-09T12:13:25;13.50;99.90
4757;DHT22;2392;52.578;13.426;2023-10-09T12:15:54;13.50;99.90
4757;DHT22;2392;52.578;13.426;2023-10-09T12:18:25;13.50;99.90
4757;DHT22;2392;52.578;13.426;2023-10-09T12:20:54;13.50;99.90
4757;DHT22;2392;52.578;13.426;2023-10-09T12:23:28;13.50;99.90
4757;DHT22;2392;52.578;13.426;2023-10-09T12:25:55;13.60;99.90
4757;DHT22;2392;52.578;13.426;2023-10-09T12:28:23;13.60;99.90
4757;DHT22;2392;52.578;13.426;2023-10-09T12:30:54;13.70;99.90
4757;DHT22;2392;52.578;13.426;2023-10-09T12:33:28;13.60;99.90
4757;DHT22;2392;52.578;13.426;2023-10-09T12:35:57;13.50;99.90
4757;DHT22;2392;52.578;13.426;2023-10-09T12:38:26;13.50;99.90
4757;DHT22;2392;52.578;13.426;2023-10-09T12:41:02;13.30;99.90
4757;DHT22;2392;52.578;13.426;2023-10-09T12:43:45;13.40;99.90
4757;DHT22;2392;52.578;13.426;2023-10-09T12:46:14;13.40;99.90
4757;DHT22;2392;52.578;13.426;2023-10-09T12:48:42;13.40;99.90
4757;DHT22;2392;52.578;13.426;2023-10-09T12:51:13;13.40;99.90
4757;DHT22;2392;52.578;13.426;2023-10-09T12:53:42;13.40;99.90
4757;DHT22;2392;52.578;13.426;2023-10-09T12:56:09;13.30;99.90
4757;DHT22;2392;52.578;13.426;2023-10-09T12:58:40;13.40;99.90
4757;DHT22;2392;52.578;13.426;2023-10-09T13:01:19;13.40;99.90
4757;DHT22;2392;52.578;13.426;2023-10-09T13:03:46;13.20;99.90
4757;DHT22;2392;52.578;13.426;2023-10-09T13:06:15;13.20;99.90
4757;DHT22;2392;52.578;13.426;2023-10-09T13:08:49;13.10;99.90
4757;DHT22;2392;52.578;13.426;2023-10-09T13:11:17;13.00;99.90
4757;DHT22;2392;52.578;13.426;2023-10-09T13:13:51;13.00;99.90
4757;DHT22;2392;52.578;13.426;2023-10-09T13:16:22;13.00;99.90
4757;DHT22;2392;52.578;13.426;2023-10-09T13:18:49;13.10;99.90
4757;DHT22;2392;52.578;13.426;2023-10-09T13:21:17;13.00;99.90
4757;DHT22;2392;52.578;13.426;2023-10-09T13:23:44;13.00;99.90
4757;DHT22;2392;52.578;13.426;2023-10-09T13:26:13;13.00;99.90
4757;DHT22;2392;52.578;13.426;2023-10-09T13:28:50;13.00;99.90
4757;DHT22;2392;52.578;13.426;2023-10-09T13:31:19;13.00;99.90
4757;DHT22;2392;52.578;13.426;2023-10-09T13:33:48;13.00;99.90
4757;DHT22;2392;52.578;13.426;2023-10-09T13:36:15;13.00;99.90
4757;DHT22;2392;52.578;13.426;2023-10-09T13:38:53;12.90;99.90
4757;DHT22;2392;52.578;13.426;2023-10-09T13:41:21;12.90;99.90
4757;DHT22;2392;52.578;13.426;2023-10-09T13:43:48;12.90;99.90
4757;DHT22;2392;52.578;13.426;2023-10-09T13:46:18;12.90;99.90
4757;DHT22;2392;52.578;13.426;2023-10-09T13:48:45;12.70;99.90
4757;DHT22;2392;52.578;13.426;2023-10-09T13:51:14;12.70;99.90
4757;DHT22;2392;52.578;13.426;2023-10-09T13:53:44;12.70;99.90
4757;DHT22;2392;52.578;13.426;2023-10-09T13:56:14;12.70;99.90
4757;DHT22;2392;52.578;13.426;2023-10-09T13:58:47;12.70;99.90
4757;DHT22;2392;52.578;13.426;2023-10-09T14:01:15;12.70;99.90
4757;DHT22;2392;52.578;13.426;2023-10-09T14:03:56;12.70;99.90
4757;DHT22;2392;52.578;13.426;2023-10-09T14:06:24;12.60;99.90
4757;DHT22;2392;52.578;13.426;2023-10-09T14:08:59;12.60;99.90
4757;DHT22;2392;52.578;13.426;2023-10-09T14:11:29;12.50;99.90
4757;DHT22;2392;52.578;13.426;2023-10-09T14:13:57;12.50;99.90
4757;DHT22;2392;52.578;13.426;2023-10-09T14:16:26;12.50;99.90
4757;DHT22;2392;52.578;13.426;2023-10-09T14:19:00;12.50;99.90
4757;DHT22;2392;52.578;13.426;2023-10-09T14:21:27;12.50;99.90
4757;DHT22;2392;52.578;13.426;2023-10-09T14:23:56;12.50;99.90
4757;DHT22;2392;52.578;13.426;2023-10-09T14:26:25;12.50;99.90
4757;DHT22;2392;52.578;13.426;2023-10-09T14:28:52;12.60;99.90
4757;DHT22;2392;52.578;13.426;2023-10-09T14:31:20;12.60;99.90
4757;DHT22;2392;52.578;13.426;2023-10-09T14:33:53;12.60;99.90
4757;DHT22;2392;52.578;13.426;2023-10-09T14:36:23;12.50;99.90
4757;DHT22;2392;52.578;13.426;2023-10-09T14:39:00;12.40;99.90
4757;DHT22;2392;52.578;13.426;2023-10-09T14:41:28;12.40;99.90
4757;DHT22;2392;52.578;13.426;2023-10-09T14:43:59;12.30;99.90
4757;DHT22;2392;52.578;13.426;2023-10-09T14:46:26;12.30;99.90
4757;DHT22;2392;52.578;13.426;2023-10-09T14:48:55;12.30;99.90
4757;DHT22;2392;52.578;13.426;2023-10-09T14:51:24;12.40;99.90
4757;DHT22;2392;52.578;13.426;2023-10-09T14:53:58;12.40;99.90
4757;DHT22;2392;52.578;13.426;2023-10-09T14:56:27;12.40;99.90
4757;DHT22;2392;52.578;13.426;2023-10-09T14:59:00;12.50;99.90
4757;DHT22;2392;52.578;13.426;2023-10-09T15:01:28;12.50;99.90
4757;DHT22;2392;52.578;13.426;2023-10-09T15:03:58;12.50;99.90
4757;DHT22;2392;52.578;13.426;2023-10-09T15:06:27;12.50;99.90
4757;DHT22;2392;52.578;13.426;2023-10-09T15:08:57;12.50;99.90
4757;DHT22;2392;52.578;13.426;2023-10-09T15:11:28;12.60;99.90
4757;DHT22;2392;52.578;13.426;2023-10-09T15:13:56;12.60;99.90
4757;DHT22;2392;52.578;13.426;2023-10-09T15:16:26;12.60;99.90
4757;DHT22;2392;52.578;13.426;2023-10-09T15:18:59;12.60;99.90
4757;DHT22;2392;52.578;13.426;2023-10-09T15:21:33;12.50;99.90
4757;DHT22;2392;52.578;13.426;2023-10-09T15:24:00;12.50;99.90
4757;DHT22;2392;52.578;13.426;2023-10-09T15:26:28;12.60;99.90
4757;DHT22;2392;52.578;13.426;2023-10-09T15:29:03;12.60;99.90
4757;DHT22;2392;52.578;13.426;2023-10-09T15:31:32;12.60;99.90
4757;DHT22;2392;52.578;13.426;2023-10-09T15:34:00;12.60;99.90
4757;DHT22;2392;52.578;13.426;2023-10-09T15:36:27;12.60;99.90
4757;DHT22;2392;52.578;13.426;2023-10-09T15:38:59;12.60;99.90
4757;DHT22;2392;52.578;13.426;2023-10-09T15:41:28;12.50;99.90
4757;DHT22;2392;52.578;13.426;2023-10-09T15:43:57;12.60;99.90
4757;DHT22;2392;52.578;13.426;2023-10-09T15:46:27;12.60;99.90
4757;DHT22;2392;52.578;13.426;2023-10-09T15:49:00;12.50;99.90
4757;DHT22;2392;52.578;13.426;2023-10-09T15:51:28;12.60;99.90
4757;DHT22;2392;52.578;13.426;2023-10-09T15:53:56;12.60;99.90
4757;DHT22;2392;52.578;13.426;2023-10-09T15:56:35;12.60;99.90
4757;DHT22;2392;52.578;13.426;2023-10-09T15:59:07;12.50;99.90
4757;DHT22;2392;52.578;13.426;2023-10-09T16:01:37;12.50;99.90
4757;DHT22;2392;52.578;13.426;2023-10-09T16:04:09;12.50;99.90
4757;DHT22;2392;52.578;13.426;2023-10-09T16:06:37;12.50;99.90
4757;DHT22;2392;52.578;13.426;2023-10-09T16:09:06;12.50;99.90
4757;DHT22;2392;52.578;13.426;2023-10-09T16:11:41;12.50;99.90
4757;DHT22;2392;52.578;13.426;2023-10-09T16:14:15;12.50;99.90
4757;DHT22;2392;52.578;13.426;2023-10-09T16:16:45;12.50;99.90
4757;DHT22;2392;52.578;13.426;2023-10-09T16:19:12;12.50;99.90
4757;DHT22;2392;52.578;13.426;2023-10-09T16:21:41;12.40;99.90
4757;DHT22;2392;52.578;13.426;2023-10-09T16:24:08;12.40;99.90
4757;DHT22;2392;52.578;13.426;2023-10-09T16:26:38;12.30;99.90
4757;DHT22;2392;52.578;13.426;2023-10-09T16:29:08;12.30;99.90